sensor_id;sensor_type;location;lat;lon;timestamp;temperature;humidity
22364;DHT22;11349;53.412;-1.328;2022-09-09T00:04:26;15.30;99.90
22364;DHT22;11349;53.412;-1.328;2022-09-09T00:07:15;15.30;99.90
22364;DHT22;11349;53.412;-1.328;2022-09-09T00:09:47;15.30;99.90
22364;DHT22;11349;53.412;-1.328;2022-09-09T00:15:06;15.30;99.90
22364;DHT22;11349;53.412;-1.328;2022-09-09T00:18:30;15.20;99.90
22364;DHT22;11349;53.412;-1.328;2022-09-09T00:20:39;15.20;99.90
22364;DHT22;11349;53.412;-1.328;2022-09-09T00:23:16;15.30;99.90
22364;DHT22;11349;53.412;-1.328;2022-09-09T00:26:05;15.30;99.90
22364;DHT22;11349;53.412;-1.328;2022-09-09T00:28:44;15.30;99.90
22364;DHT22;11349;53.412;-1.328;2022-09-09T00:31:14;15.30;99.90
22364;DHT22;11349;53.412;-1.328;2022-09-09T00:33:43;15.30;99.90
22364;DHT22;11349;53.412;-1.328;2022-09-09T00:36:15;15.20;99.90
22364;DHT22;11349;53.412;-1.328;2022-09-09T00:39:01;15.20;99.90
22364;DHT22;11349;53.412;-1.328;2022-09-09T00:52:00;15.20;99.90
22364;DHT22;11349;53.412;-1.328;2022-09-09T00:54:33;15.20;99.90
22364;DHT22;11349;53.412;-1.328;2022-09-09T00:59:55;15.30;99.90
22364;DHT22;11349;53.412;-1.328;2022-09-09T01:02:27;15.30;99.90
22364;DHT22;11349;53.412;-1.328;2022-09-09T01:05:02;15.20;99.90
22364;DHT22;11349;53.412;-1.328;2022-09-09T01:07:31;15.20;99.90
22364;DHT22;11349;53.412;-1.328;2022-09-09T01:09:59;15.20;99.90
22364;DHT22;11349;53.412;-1.328;2022-09-09T01:12:38;15.30;99.90
22364;DHT22;11349;53.412;-1.328;2022-09-09T01:15:12;15.20;99.90
22364;DHT22;11349;53.412;-1.328;2022-09-09T01:20:19;15.10;99.90
22364;DHT22;11349;53.412;-1.328;2022-09-09T01:28:24;15.10;99.90
22364;DHT22;11349;53.412;-1.328;2022-09-09T01:30:51;15.10;99.90
22364;DHT22;11349;53.412;-1.328;2022-09-09T01:33:18;15.10;99.90
22364;DHT22;11349;53.412;-1.328;2022-09-09T01:36:17;15.20;99.90
22364;DHT22;11349;53.412;-1.328;2022-09-09T01:38:45;15.20;99.90
22364;DHT22;11349;53.412;-1.328;2022-09-09T01:41:11;15.10;99.90
22364;DHT22;11349;53.412;-1.328;2022-09-09T01:43:37;15.10;99.90
22364;DHT22;11349;53.412;-1.328;2022-09-09T01:46:03;15.10;99.90
22364;DHT22;11349;53.412;-1.328;2022-09-09T01:48:29;15.10;99.90
22364;DHT22;11349;53.412;-1.328;2022-09-09T01:50:55;15.10;99.90
22364;DHT22;11349;53.412;-1.328;2022-09-09T01:53:21;15.10;99.90
22364;DHT22;11349;53.412;-1.328;2022-09-09T02:04:36;15.10;99.90
22364;DHT22;11349;53.412;-1.328;2022-09-09T02:07:02;15.10;99.90
22364;DHT22;11349;53.412;-1.328;2022-09-09T02:09:30;15.10;99.90
22364;DHT22;11349;53.412;-1.328;2022-09-09T02:12:05;15.10;99.90
22364;DHT22;11349;53.412;-1.328;2022-09-09T02:14:37;15.10;99.90
22364;DHT22;11349;53.412;-1.328;2022-09-09T02:17:10;15.10;99.90
22364;DHT22;11349;53.412;-1.328;2022-09-09T02:19:44;15.10;99.90
22364;DHT22;11349;53.412;-1.328;2022-09-09T02:22:11;15.10;99.90
22364;DHT22;11349;53.412;-1.328;2022-09-09T02:24:40;15.10;99.90
22364;DHT22;11349;53.412;-1.328;2022-09-09T02:27:08;15.10;99.90
22364;DHT22;11349;53.412;-1.328;2022-09-09T02:29:37;15.10;99.90
22364;DHT22;11349;53.412;-1.328;2022-09-09T02:32:09;15.20;99.90
22364;DHT22;11349;53.412;-1.328;2022-09-09T02:34:45;15.20;99.90
22364;DHT22;11349;53.412;-1.328;2022-09-09T02:37:17;15.20;99.90
22364;DHT22;11349;53.412;-1.328;2022-09-09T02:39:44;15.10;99.90
22364;DHT22;11349;53.412;-1.328;2022-09-09T02:42:10;15.10;99.90
22364;DHT22;11349;53.412;-1.328;2022-09-09T02:44:36;15.10;99.90
22364;DHT22;11349;53.412;-1.328;2022-09-09T02:48:05;15.10;99.90
22364;DHT22;11349;53.412;-1.328;2022-09-09T02:50:32;15.10;99.90
22364;DHT22;11349;53.412;-1.328;2022-09-09T02:55:41;15.10;99.90
22364;DHT22;11349;53.412;-1.328;2022-09-09T02:58:11;15.00;99.90
22364;DHT22;11349;53.412;-1.328;2022-09-09T03:00:39;15.00;99.90
22364;DHT22;11349;53.412;-1.328;2022-09-09T03:03:06;15.00;99.90
22364;DHT22;11349;53.412;-1.328;2022-09-09T03:05:34;15.10;99.90
22364;DHT22;11349;53.412;-1.328;2022-09-09T03:07:59;15.00;99.90
22364;DHT22;11349;53.412;-1.328;2022-09-09T03:10:25;15.10;99.90
22364;DHT22;11349;53.412;-1.328;2022-09-09T03:12:51;15.10;99.90
22364;DHT22;11349;53.412;-1.328;2022-09-09T03:15:16;15.10;99.90
22364;DHT22;11349;53.412;-1.328;2022-09-09T03:17:42;15.10;99.90
22364;DHT22;11349;53.412;-1.328;2022-09-09T03:20:09;15.10;99.90
22364;DHT22;11349;53.412;-1.328;2022-09-09T03:22:35;15.10;99.90
22364;DHT22;11349;53.412;-1.328;2022-09-09T03:25:01;15.10;99.90
22364;DHT22;11349;53.412;-1.328;2022-09-09T03:27:28;15.20;99.90
22364;DHT22;11349;53.412;-1.328;2022-09-09T03:29:54;15.10;99.90
22364;DHT22;11349;53.412;-1.328;2022-09-09T03:32:23;15.10;99.90
22364;DHT22;11349;53.412;-1.328;2022-09-09T03:34:49;15.10;99.90
22364;DHT22;11349;53.412;-1.328;2022-09-09T03:37:19;15.10;99.90
22364;DHT22;11349;53.412;-1.328;2022-09-09T03:39:45;15.20;99.90
22364;DHT22;11349;53.412;-1.328;2022-09-09T03:42:14;15.20;99.90
22364;DHT22;11349;53.412;-1.328;2022-09-09T03:44:44;15.20;99.90
22364;DHT22;11349;53.412;-1.328;2022-09-09T03:47:12;15.20;99.90
22364;DHT22;11349;53.412;-1.328;2022-09-09T03:49:38;15.20;99.90
22364;DHT22;11349;53.412;-1.328;2022-09-09T03:52:04;15.20;99.90
22364;DHT22;11349;53.412;-1.328;2022-09-09T03:54:29;15.20;99.90
22364;DHT22;11349;53.412;-1.328;2022-09-09T03:56:55;15.20;99.90
22364;DHT22;11349;53.412;-1.328;2022-09-09T03:59:21;15.20;99.90
22364;DHT22;11349;53.412;-1.328;2022-09-09T04:01:46;15.20;99.90
22364;DHT22;11349;53.412;-1.328;2022-09-09T04:04:12;15.20;99.90
22364;DHT22;11349;53.412;-1.328;2022-09-09T04:06:38;15.20;99.90
22364;DHT22;11349;53.412;-1.328;2022-09-09T04:09:04;15.30;99.90
22364;DHT22;11349;53.412;-1.328;2022-09-09T04:11:30;15.20;99.90
22364;DHT22;11349;53.412;-1.328;2022-09-09T04:13:55;15.20;99.90
22364;DHT22;11349;53.412;-1.328;2022-09-09T04:16:21;15.30;99.90
22364;DHT22;11349;53.412;-1.328;2022-09-09T04:18:47;15.20;99.90
22364;DHT22;11349;53.412;-1.328;2022-09-09T04:21:13;15.20;99.90
22364;DHT22;11349;53.412;-1.328;2022-09-09T04:23:40;15.20;99.90
22364;DHT22;11349;53.412;-1.328;2022-09-09T04:26:06;15.30;99.90
22364;DHT22;11349;53.412;-1.328;2022-09-09T04:28:34;15.20;99.90
22364;DHT22;11349;53.412;-1.328;2022-09-09T04:31:05;15.20;99.90
22364;DHT22;11349;53.412;-1.328;2022-09-09T04:33:31;15.30;99.90
22364;DHT22;11349;53.412;-1.328;2022-09-09T04:35:57;15.20;99.90
22364;DHT22;11349;53.412;-1.328;2022-09-09T04:38:22;15.20;99.90
22364;DHT22;11349;53.412;-1.328;2022-09-09T04:40:50;15.20;99.90
22364;DHT22;11349;53.412;-1.328;2022-09-09T04:43:17;15.30;99.90
22364;DHT22;11349;53.412;-1.328;2022-09-09T04:45:47;15.20;99.90
22364;DHT22;11349;53.412;-1.328;2022-09-09T04:48:13;15.30;99.90
22364;DHT22;11349;53.412;-1.328;2022-09-09T04:50:39;15.30;99.90
22364;DHT22;11349;53.412;-1.328;2022-09-09T04:53:06;15.30;99.90
22364;DHT22;11349;53.412;-1.328;2022-09-09T04:55:33;15.20;99.90
22364;DHT22;11349;53.412;-1.328;2022-09-09T04:58:04;15.20;99.90
22364;DHT22;11349;53.412;-1.328;2022-09-09T05:00:31;15.20;99.90
22364;DHT22;11349;53.412;-1.328;2022-09-09T05:02:56;15.20;99.90
22364;DHT22;11349;53.412;-1.328;2022-09-09T05:05:22;15.20;99.90
22364;DHT22;11349;53.412;-1.328;2022-09-09T05:07:48;15.20;99.90
22364;DHT22;11349;53.412;-1.328;2022-09-09T05:10:14;15.20;99.90
22364;DHT22;11349;53.412;-1.328;2022-09-09T05:12:42;15.20;99.90
22364;DHT22;11349;53.412;-1.328;2022-09-09T05:15:08;15.10;99.90
22364;DHT22;11349;53.412;-1.328;2022-09-09T05:17:34;15.20;99.90
22364;DHT22;11349;53.412;-1.328;2022-09-09T05:20:00;15.10;99.90
22364;DHT22;11349;53.412;-1.328;2022-09-09T05:22:28;15.20;99.90
22364;DHT22;11349;53.412;-1.328;2022-09-09T05:24:54;15.20;99.90
22364;DHT22;11349;53.412;-1.328;2022-09-09T05:27:19;15.20;99.90
22364;DHT22;11349;53.412;-1.328;2022-09-09T05:29:46;15.20;99.90
22364;DHT22;11349;53.412;-1.328;2022-09-09T05:32:11;15.20;99.90
22364;DHT22;11349;53.412;-1.328;2022-09-09T05:34:39;15.10;99.90
22364;DHT22;11349;53.412;-1.328;2022-09-09T05:37:05;15.10;99.90
22364;DHT22;11349;53.412;-1.328;2022-09-09T05:39:30;15.10;99.90
22364;DHT22;11349;53.412;-1.328;2022-09-09T05:41:56;15.10;99.90
22364;DHT22;11349;53.412;-1.328;2022-09-09T05:44:22;15.20;99.90
22364;DHT22;11349;53.412;-1.328;2022-09-09T05:46:50;15.10;99.90
22364;DHT22;11349;53.412;-1.328;2022-09-09T05:49:16;15.10;99.90
22364;DHT22;11349;53.412;-1.328;2022-09-09T05:51:42;15.10;99.90
22364;DHT22;11349;53.412;-1.328;2022-09-09T05:54:11;15.10;99.90
22364;DHT22;11349;53.412;-1.328;2022-09-09T05:56:40;15.10;99.90
22364;DHT22;11349;53.412;-1.328;2022-09-09T05:59:06;15.10;99.90
22364;DHT22;11349;53.412;-1.328;2022-09-09T06:01:34;15.10;99.90
22364;DHT22;11349;53.412;-1.328;2022-09-09T06:04:00;15.20;99.90
22364;DHT22;11349;53.412;-1.328;2022-09-09T06:06:31;15.10;99.90
22364;DHT22;11349;53.412;-1.328;2022-09-09T06:08:57;15.10;99.90
22364;DHT22;11349;53.412;-1.328;2022-09-09T06:11:25;15.10;99.90
22364;DHT22;11349;53.412;-1.328;2022-09-09T06:13:52;15.10;99.90
22364;DHT22;11349;53.412;-1.328;2022-09-09T06:16:21;15.20;99.90
22364;DHT22;11349;53.412;-1.328;2022-09-09T06:18:51;15.20;99.90
22364;DHT22;11349;53.412;-1.328;2022-09-09T06:21:25;15.20;99.90
22364;DHT22;11349;53.412;-1.328;2022-09-09T06:23:51;15.20;99.90
22364;DHT22;11349;53.412;-1.328;2022-09-09T06:26:19;15.20;99.90
22364;DHT22;11349;53.412;-1.328;2022-09-09T06:28:46;15.30;99.90
22364;DHT22;11349;53.412;-1.328;2022-09-09T06:31:15;15.30;99.90
22364;DHT22;11349;53.412;-1.328;2022-09-09T06:33:47;15.20;99.90
22364;DHT22;11349;53.412;-1.328;2022-09-09T06:36:19;15.20;99.90
22364;DHT22;11349;53.412;-1.328;2022-09-09T06:38:46;15.20;99.90
22364;DHT22;11349;53.412;-1.328;2022-09-09T06:41:13;15.20;99.90
22364;DHT22;11349;53.412;-1.328;2022-09-09T06:43:39;15.30;99.90
22364;DHT22;11349;53.412;-1.328;2022-09-09T06:48:38;15.20;99.90
22364;DHT22;11349;53.412;-1.328;2022-09-09T06:51:09;15.20;99.90
22364;DHT22;11349;53.412;-1.328;2022-09-09T06:53:37;15.20;99.90
22364;DHT22;11349;53.412;-1.328;2022-09-09T06:56:27;15.20;99.90
22364;DHT22;11349;53.412;-1.328;2022-09-09T06:58:55;15.20;99.90
22364;DHT22;11349;53.412;-1.328;2022-09-09T07:01:29;15.20;99.90
22364;DHT22;11349;53.412;-1.328;2022-09-09T07:03:57;15.20;99.90
22364;DHT22;11349;53.412;-1.328;2022-09-09T07:06:44;15.20;99.90
22364;DHT22;11349;53.412;-1.328;2022-09-09T07:09:13;15.20;99.90
22364;DHT22;11349;53.412;-1.328;2022-09-09T07:11:46;15.20;99.90
22364;DHT22;11349;53.412;-1.328;2022-09-09T07:14:13;15.30;99.90
22364;DHT22;11349;53.412;-1.328;2022-09-09T07:16:43;15.40;99.90
22364;DHT22;11349;53.412;-1.328;2022-09-09T07:19:10;15.40;99.90
22364;DHT22;11349;53.412;-1.328;2022-09-09T07:21:36;15.40;99.90
22364;DHT22;11349;53.412;-1.328;2022-09-09T07:24:02;15.40;99.90
22364;DHT22;11349;53.412;-1.328;2022-09-09T07:26:31;15.40;99.90
22364;DHT22;11349;53.412;-1.328;2022-09-09T07:28:57;15.40;99.90
22364;DHT22;11349;53.412;-1.328;2022-09-09T07:31:31;15.40;99.90
22364;DHT22;11349;53.412;-1.328;2022-09-09T07:33:57;15.40;99.90
22364;DHT22;11349;53.412;-1.328;2022-09-09T07:36:26;15.50;99.90
22364;DHT22;11349;53.412;-1.328;2022-09-09T07:38:54;15.40;99.90
22364;DHT22;11349;53.412;-1.328;2022-09-09T07:41:21;15.50;99.90
22364;DHT22;11349;53.412;-1.328;2022-09-09T07:43:48;15.50;99.90
22364;DHT22;11349;53.412;-1.328;2022-09-09T07:46:16;15.60;99.90
22364;DHT22;11349;53.412;-1.328;2022-09-09T07:48:50;15.60;99.90
22364;DHT22;11349;53.412;-1.328;2022-09-09T07:51:19;15.70;99.90
22364;DHT22;11349;53.412;-1.328;2022-09-09T07:53:52;15.70;99.90
22364;DHT22;11349;53.412;-1.328;2022-09-09T07:56:18;15.70;99.90
22364;DHT22;11349;53.412;-1.328;2022-09-09T07:58:48;15.80;99.90
22364;DHT22;11349;53.412;-1.328;2022-09-09T08:01:17;15.80;99.90
22364;DHT22;11349;53.412;-1.328;2022-09-09T08:03:44;15.90;99.90
22364;DHT22;11349;53.412;-1.328;2022-09-09T08:06:11;15.90;99.90
22364;DHT22;11349;53.412;-1.328;2022-09-09T08:08:38;16.00;99.90
22364;DHT22;11349;53.412;-1.328;2022-09-09T08:11:11;16.00;99.90
22364;DHT22;11349;53.412;-1.328;2022-09-09T08:13:38;15.90;99.90
22364;DHT22;11349;53.412;-1.328;2022-09-09T08:18:31;16.00;99.90
22364;DHT22;11349;53.412;-1.328;2022-09-09T08:20:57;16.00;99.90
22364;DHT22;11349;53.412;-1.328;2022-09-09T08:23:22;16.10;99.90
22364;DHT22;11349;53.412;-1.328;2022-09-09T08:25:48;16.10;99.90
22364;DHT22;11349;53.412;-1.328;2022-09-09T08:28:17;16.00;99.90
22364;DHT22;11349;53.412;-1.328;2022-09-09T08:30:43;16.00;99.90
22364;DHT22;11349;53.412;-1.328;2022-09-09T08:33:09;16.10;99.90
22364;DHT22;11349;53.412;-1.328;2022-09-09T08:35:34;16.10;99.90
22364;DHT22;11349;53.412;-1.328;2022-09-09T08:38:03;16.10;99.90
22364;DHT22;11349;53.412;-1.328;2022-09-09T08:40:33;16.10;99.90
22364;DHT22;11349;53.412;-1.328;2022-09-09T08:43:05;16.00;99.90
22364;DHT22;11349;53.412;-1.328;2022-09-09T08:45:37;16.10;99.90
22364;DHT22;11349;53.412;-1.328;2022-09-09T08:50:44;16.20;99.90
22364;DHT22;11349;53.412;-1.328;2022-09-09T08:53:21;16.20;99.90
22364;DHT22;11349;53.412;-1.328;2022-09-09T08:55:48;16.20;99.90
22364;DHT22;11349;53.412;-1.328;2022-09-09T08:58:19;16.30;99.90
22364;DHT22;11349;53.412;-1.328;2022-09-09T09:03:35;16.20;99.90
22364;DHT22;11349;53.412;-1.328;2022-09-09T09:12:06;16.30;99.90
22364;DHT22;11349;53.412;-1.328;2022-09-09T09:14:36;16.40;99.90
22364;DHT22;11349;53.412;-1.328;2022-09-09T09:17:11;16.40;99.90
22364;DHT22;11349;53.412;-1.328;2022-09-09T09:19:40;16.50;99.90
22364;DHT22;11349;53.412;-1.328;2022-09-09T09:22:22;16.60;99.90
22364;DHT22;11349;53.412;-1.328;2022-09-09T09:29:58;16.70;99.90
22364;DHT22;11349;53.412;-1.328;2022-09-09T09:32:26;16.80;99.90
22364;DHT22;11349;53.412;-1.328;2022-09-09T09:34:56;16.90;99.90
22364;DHT22;11349;53.412;-1.328;2022-09-09T09:37:29;16.90;99.90
22364;DHT22;11349;53.412;-1.328;2022-09-09T09:39:55;16.90;99.90
22364;DHT22;11349;53.412;-1.328;2022-09-09T09:42:22;17.00;99.90
22364;DHT22;11349;53.412;-1.328;2022-09-09T09:44:48;17.10;99.90
22364;DHT22;11349;53.412;-1.328;2022-09-09T09:47:21;17.20;99.90
22364;DHT22;11349;53.412;-1.328;2022-09-09T09:49:58;17.30;99.90
22364;DHT22;11349;53.412;-1.328;2022-09-09T09:52:31;17.20;99.90
22364;DHT22;11349;53.412;-1.328;2022-09-09T09:54:58;17.30;99.90
22364;DHT22;11349;53.412;-1.328;2022-09-09T09:57:30;17.30;99.90
22364;DHT22;11349;53.412;-1.328;2022-09-09T10:00:19;17.30;99.90
22364;DHT22;11349;53.412;-1.328;2022-09-09T10:02:47;17.40;99.90
22364;DHT22;11349;53.412;-1.328;2022-09-09T10:05:25;17.50;99.90
22364;DHT22;11349;53.412;-1.328;2022-09-09T10:08:09;17.60;99.90
22364;DHT22;11349;53.412;-1.328;2022-09-09T10:27:05;18.30;99.90
22364;DHT22;11349;53.412;-1.328;2022-09-09T10:32:39;18.20;99.90
22364;DHT22;11349;53.412;-1.328;2022-09-09T10:38:13;18.30;99.90
22364;DHT22;11349;53.412;-1.328;2022-09-09T10:43:56;18.40;99.90
22364;DHT22;11349;53.412;-1.328;2022-09-09T10:49:48;18.70;99.90
22364;DHT22;11349;53.412;-1.328;2022-09-09T10:55:01;18.70;99.90
22364;DHT22;11349;53.412;-1.328;2022-09-09T10:57:38;18.90;99.90
22364;DHT22;11349;53.412;-1.328;2022-09-09T11:00:10;19.00;99.90
22364;DHT22;11349;53.412;-1.328;2022-09-09T11:02:41;18.90;99.90
22364;DHT22;11349;53.412;-1.328;2022-09-09T11:05:20;19.00;99.90
22364;DHT22;11349;53.412;-1.328;2022-09-09T11:07:59;19.10;99.90
22364;DHT22;11349;53.412;-1.328;2022-09-09T11:13:23;19.00;99.90
22364;DHT22;11349;53.412;-1.328;2022-09-09T11:16:01;19.10;99.90
22364;DHT22;11349;53.412;-1.328;2022-09-09T11:18:31;19.20;99.90
22364;DHT22;11349;53.412;-1.328;2022-09-09T11:21:03;19.30;99.90
22364;DHT22;11349;53.412;-1.328;2022-09-09T11:23:54;19.40;99.90
22364;DHT22;11349;53.412;-1.328;2022-09-09T11:26:37;19.50;99.90
22364;DHT22;11349;53.412;-1.328;2022-09-09T11:32:39;19.50;99.90
22364;DHT22;11349;53.412;-1.328;2022-09-09T11:35:21;19.60;99.90
22364;DHT22;11349;53.412;-1.328;2022-09-09T11:40:40;20.00;99.90
22364;DHT22;11349;53.412;-1.328;2022-09-09T11:43:17;20.20;99.90
22364;DHT22;11349;53.412;-1.328;2022-09-09T11:45:51;20.30;99.90
22364;DHT22;11349;53.412;-1.328;2022-09-09T11:48:34;20.30;99.90
22364;DHT22;11349;53.412;-1.328;2022-09-09T11:51:08;20.20;99.90
22364;DHT22;11349;53.412;-1.328;2022-09-09T11:53:47;19.90;99.90
22364;DHT22;11349;53.412;-1.328;2022-09-09T11:59:22;19.50;99.90
22364;DHT22;11349;53.412;-1.328;2022-09-09T12:02:02;19.50;99.90
22364;DHT22;11349;53.412;-1.328;2022-09-09T12:04:36;19.40;99.90
22364;DHT22;11349;53.412;-1.328;2022-09-09T12:09:58;19.40;99.90
22364;DHT22;11349;53.412;-1.328;2022-09-09T12:12:35;19.30;99.90
22364;DHT22;11349;53.412;-1.328;2022-09-09T12:17:42;18.90;99.90
22364;DHT22;11349;53.412;-1.328;2022-09-09T12:28:22;18.50;99.90
22364;DHT22;11349;53.412;-1.328;2022-09-09T12:33:23;18.60;99.90
22364;DHT22;11349;53.412;-1.328;2022-09-09T12:35:59;18.50;99.90
22364;DHT22;11349;53.412;-1.328;2022-09-09T12:38:37;18.30;99.90
22364;DHT22;11349;53.412;-1.328;2022-09-09T12:41:04;18.40;99.90
22364;DHT22;11349;53.412;-1.328;2022-09-09T12:43:29;18.50;99.90
22364;DHT22;11349;53.412;-1.328;2022-09-09T12:46:01;18.30;99.90
22364;DHT22;11349;53.412;-1.328;2022-09-09T12:48:35;18.40;99.90
22364;DHT22;11349;53.412;-1.328;2022-09-09T12:51:02;18.40;99.90
22364;DHT22;11349;53.412;-1.328;2022-09-09T12:53:36;18.50;99.90
22364;DHT22;11349;53.412;-1.328;2022-09-09T12:56:05;18.30;99.90
22364;DHT22;11349;53.412;-1.328;2022-09-09T12:58:37;18.40;99.90
22364;DHT22;11349;53.412;-1.328;2022-09-09T13:01:04;18.40;99.90
22364;DHT22;11349;53.412;-1.328;2022-09-09T13:03:32;18.50;99.90
22364;DHT22;11349;53.412;-1.328;2022-09-09T13:06:10;18.50;99.90
22364;DHT22;11349;53.412;-1.328;2022-09-09T13:08:37;18.50;99.90
22364;DHT22;11349;53.412;-1.328;2022-09-09T13:11:06;18.60;99.90
22364;DHT22;11349;53.412;-1.328;2022-09-09T13:13:39;18.60;99.90
22364;DHT22;11349;53.412;-1.328;2022-09-09T13:16:17;18.60;99.90
22364;DHT22;11349;53.412;-1.328;2022-09-09T13:18:43;18.40;99.90
22364;DHT22;11349;53.412;-1.328;2022-09-09T13:21:09;18.50;99.90
22364;DHT22;11349;53.412;-1.328;2022-09-09T13:23:38;18.60;99.90
22364;DHT22;11349;53.412;-1.328;2022-09-09T13:26:25;18.60;99.90
22364;DHT22;11349;53.412;-1.328;2022-09-09T13:28:54;18.60;99.90
22364;DHT22;11349;53.412;-1.328;2022-09-09T13:31:28;18.70;99.90
22364;DHT22;11349;53.412;-1.328;2022-09-09T13:33:54;18.70;99.90
22364;DHT22;11349;53.412;-1.328;2022-09-09T13:36:31;18.80;99.90
22364;DHT22;11349;53.412;-1.328;2022-09-09T13:38:58;18.80;99.90
22364;DHT22;11349;53.412;-1.328;2022-09-09T13:41:36;18.90;99.90
22364;DHT22;11349;53.412;-1.328;2022-09-09T13:44:20;19.00;99.90
22364;DHT22;11349;53.412;-1.328;2022-09-09T13:46:58;19.10;99.90
22364;DHT22;11349;53.412;-1.328;2022-09-09T13:49:28;19.10;99.90
22364;DHT22;11349;53.412;-1.328;2022-09-09T13:52:04;19.10;99.90
22364;DHT22;11349;53.412;-1.328;2022-09-09T13:54:31;19.20;99.90
22364;DHT22;11349;53.412;-1.328;2022-09-09T13:56:57;19.20;99.90
22364;DHT22;11349;53.412;-1.328;2022-09-09T13:59:23;19.30;99.90
22364;DHT22;11349;53.412;-1.328;2022-09-09T14:01:50;19.30;99.90
22364;DHT22;11349;53.412;-1.328;2022-09-09T14:04:17;19.40;99.90
22364;DHT22;11349;53.412;-1.328;2022-09-09T14:06:43;19.40;99.90
22364;DHT22;11349;53.412;-1.328;2022-09-09T14:09:16;19.50;99.90
22364;DHT22;11349;53.412;-1.328;2022-09-09T14:11:43;19.50;99.90
22364;DHT22;11349;53.412;-1.328;2022-09-09T14:14:09;19.60;99.90
22364;DHT22;11349;53.412;-1.328;2022-09-09T14:16:35;19.50;99.90
22364;DHT22;11349;53.412;-1.328;2022-09-09T14:19:01;19.40;99.90
22364;DHT22;11349;53.412;-1.328;2022-09-09T14:21:27;19.00;99.90
22364;DHT22;11349;53.412;-1.328;2022-09-09T14:23:53;18.80;99.90
22364;DHT22;11349;53.412;-1.328;2022-09-09T14:26:20;18.50;99.90
22364;DHT22;11349;53.412;-1.328;2022-09-09T14:28:47;18.30;99.90
22364;DHT22;11349;53.412;-1.328;2022-09-09T14:31:13;18.20;99.90
22364;DHT22;11349;53.412;-1.328;2022-09-09T14:33:39;18.20;99.90
22364;DHT22;11349;53.412;-1.328;2022-09-09T14:36:06;18.00;99.90
22364;DHT22;11349;53.412;-1.328;2022-09-09T14:38:34;18.20;99.90
22364;DHT22;11349;53.412;-1.328;2022-09-09T14:41:01;18.00;99.90
22364;DHT22;11349;53.412;-1.328;2022-09-09T14:43:29;18.10;99.90
22364;DHT22;11349;53.412;-1.328;2022-09-09T14:45:57;17.70;99.90
22364;DHT22;11349;53.412;-1.328;2022-09-09T14:48:23;17.90;99.90
22364;DHT22;11349;53.412;-1.328;2022-09-09T14:50:51;17.90;99.90
22364;DHT22;11349;53.412;-1.328;2022-09-09T14:53:16;18.00;99.90
22364;DHT22;11349;53.412;-1.328;2022-09-09T14:55:45;18.00;99.90
22364;DHT22;11349;53.412;-1.328;2022-09-09T14:58:12;18.30;99.90
22364;DHT22;11349;53.412;-1.328;2022-09-09T15:00:38;18.40;99.90
22364;DHT22;11349;53.412;-1.328;2022-09-09T15:03:04;18.40;99.90
22364;DHT22;11349;53.412;-1.328;2022-09-09T15:05:30;18.30;99.90
22364;DHT22;11349;53.412;-1.328;2022-09-09T15:07:57;18.30;99.90
22364;DHT22;11349;53.412;-1.328;2022-09-09T15:10:24;18.30;99.90
22364;DHT22;11349;53.412;-1.328;2022-09-09T15:12:49;18.30;99.90
22364;DHT22;11349;53.412;-1.328;2022-09-09T15:15:15;18.20;99.90
22364;DHT22;11349;53.412;-1.328;2022-09-09T15:17:41;18.30;99.90
22364;DHT22;11349;53.412;-1.328;2022-09-09T15:20:07;18.30;99.90
22364;DHT22;11349;53.412;-1.328;2022-09-09T15:22:33;18.40;99.90
22364;DHT22;11349;53.412;-1.328;2022-09-09T15:24:59;18.30;99.90
22364;DHT22;11349;53.412;-1.328;2022-09-09T15:27:25;18.40;99.90
22364;DHT22;11349;53.412;-1.328;2022-09-09T15:29:50;18.50;99.90
22364;DHT22;11349;53.412;-1.328;2022-09-09T15:32:17;18.40;99.90
22364;DHT22;11349;53.412;-1.328;2022-09-09T15:34:43;18.40;99.90
22364;DHT22;11349;53.412;-1.328;2022-09-09T15:37:12;18.50;99.90
22364;DHT22;11349;53.412;-1.328;2022-09-09T15:39:39;18.40;99.90
22364;DHT22;11349;53.412;-1.328;2022-09-09T15:42:05;18.50;99.90
22364;DHT22;11349;53.412;-1.328;2022-09-09T15:44:41;18.50;99.90
22364;DHT22;11349;53.412;-1.328;2022-09-09T15:47:11;18.50;99.90
22364;DHT22;11349;53.412;-1.328;2022-09-09T15:49:40;18.50;99.90
22364;DHT22;11349;53.412;-1.328;2022-09-09T15:52:06;18.50;99.90
22364;DHT22;11349;53.412;-1.328;2022-09-09T15:54:34;18.50;99.90
22364;DHT22;11349;53.412;-1.328;2022-09-09T15:57:02;18.60;99.90
22364;DHT22;11349;53.412;-1.328;2022-09-09T15:59:30;18.50;99.90
22364;DHT22;11349;53.412;-1.328;2022-09-09T16:01:57;18.60;99.90
22364;DHT22;11349;53.412;-1.328;2022-09-09T16:04:24;18.50;99.90
22364;DHT22;11349;53.412;-1.328;2022-09-09T16:07:01;18.50;99.90
22364;DHT22;11349;53.412;-1.328;2022-09-09T16:09:27;18.40;99.90
22364;DHT22;11349;53.412;-1.328;2022-09-09T16:11:56;18.40;99.90
22364;DHT22;11349;53.412;-1.328;2022-09-09T16:14:23;18.30;99.90
22364;DHT22;11349;53.412;-1.328;2022-09-09T16:16:50;18.20;99.90
22364;DHT22;11349;53.412;-1.328;2022-09-09T16:19:16;18.10;99.90
22364;DHT22;11349;53.412;-1.328;2022-09-09T16:21:45;18.10;99.90
22364;DHT22;11349;53.412;-1.328;2022-09-09T16:24:14;18.10;99.90
22364;DHT22;11349;53.412;-1.328;2022-09-09T16:26:42;18.10;99.90
22364;DHT22;11349;53.412;-1.328;2022-09-09T16:29:11;18.10;99.90
22364;DHT22;11349;53.412;-1.328;2022-09-09T16:31:40;18.10;99.90
22364;DHT22;11349;53.412;-1.328;2022-09-09T16:34:07;18.00;99.90
22364;DHT22;11349;53.412;-1.328;2022-09-09T16:36:35;18.00;99.90
22364;DHT22;11349;53.412;-1.328;2022-09-09T16:39:05;18.00;99.90
22364;DHT22;11349;53.412;-1.328;2022-09-09T16:41:32;18.00;99.90
22364;DHT22;11349;53.412;-1.328;2022-09-09T16:44:00;18.00;99.90
22364;DHT22;11349;53.412;-1.328;2022-09-09T16:46:29;17.90;99.90
22364;DHT22;11349;53.412;-1.328;2022-09-09T16:49:00;17.90;99.90
22364;DHT22;11349;53.412;-1.328;2022-09-09T16:51:35;18.00;99.90
22364;DHT22;11349;53.412;-1.328;2022-09-09T16:54:03;17.90;99.90
22364;DHT22;11349;53.412;-1.328;2022-09-09T16:56:31;17.90;99.90
22364;DHT22;11349;53.412;-1.328;2022-09-09T16:59:04;17.90;99.90
22364;DHT22;11349;53.412;-1.328;2022-09-09T17:01:33;17.90;99.90
22364;DHT22;11349;53.412;-1.328;2022-09-09T17:04:05;17.90;99.90
22364;DHT22;11349;53.412;-1.328;2022-09-09T17:06:32;17.80;99.90
22364;DHT22;11349;53.412;-1.328;2022-09-09T17:09:05;17.90;99.90
22364;DHT22;11349;53.412;-1.328;2022-09-09T17:11:32;17.80;99.90
22364;DHT22;11349;53.412;-1.328;2022-09-09T17:13:58;17.80;99.90
22364;DHT22;11349;53.412;-1.328;2022-09-09T17:16:28;17.80;99.90
22364;DHT22;11349;53.412;-1.328;2022-09-09T17:18:55;17.80;99.90
22364;DHT22;11349;53.412;-1.328;2022-09-09T17:21:23;17.80;99.90
22364;DHT22;11349;53.412;-1.328;2022-09-09T17:23:49;17.70;99.90
22364;DHT22;11349;53.412;-1.328;2022-09-09T17:26:20;17.70;99.90
22364;DHT22;11349;53.412;-1.328;2022-09-09T17:28:46;17.70;99.90
22364;DHT22;11349;53.412;-1.328;2022-09-09T17:31:15;17.70;99.90